Time;durP1;ratioP1;P1;durP2;ratioP2;P2;SDS_P1;SDS_P2;PMS_P1;PMS_P2;Temp;Humidity;BMP_temperature;BMP_pressure;BME280_temperature;BME280_humidity;BME280_pressure;Samples;Min_cycle;Max_cycle;Signal;HPM_P1;HPM_P2
2021/04/05 00:01:41;;;;;;;16.77;10.30;;;179.20;1612.80;;;;;;5094683;28;20509;-70
2021/04/05 00:04:09;;;;;;;16.48;10.98;;;179.20;1612.80;;;;;;5094572;28;20371;-71
2021/04/05 00:06:35;;;;;;;17.58;10.60;;;154.50;1638.40;;;;;;5095143;28;20406;-68
2021/04/05 00:09:03;;;;;;;14.25;10.48;;;179.20;1612.80;;;;;;5095026;28;20390;-71
2021/04/05 00:11:29;;;;;;;17.40;10.38;;;179.20;1612.80;;;;;;5094479;28;20468;-71
2021/04/05 00:13:55;;;;;;;15.77;9.90;;;179.20;1612.80;;;;;;5094601;28;20406;-65
2021/04/05 00:16:22;;;;;;;17.60;10.30;;;179.20;1612.80;;;;;;5094440;28;20368;-70
2021/04/05 00:18:49;;;;;;;15.13;10.27;;;179.20;1612.80;;;;;;5094653;28;20547;-63
2021/04/05 00:21:21;;;;;;;17.45;11.43;;;179.20;1612.80;;;;;;5094255;28;20415;-71
2021/04/05 00:23:49;;;;;;;16.80;10.65;;;179.20;1612.80;;;;;;5094048;28;20447;-65
2021/04/05 00:26:15;;;;;;;15.98;10.13;;;179.20;1612.80;;;;;;5094175;28;20031;-69
2021/04/05 00:28:41;;;;;;;14.55;10.98;;;154.50;1612.80;;;;;;5094146;28;20341;-72
2021/04/05 00:31:08;;;;;;;15.63;11.30;;;179.20;1612.80;;;;;;5094004;28;20526;-71
2021/04/05 00:33:34;;;;;;;18.65;10.63;;;179.20;1612.80;;;;;;5094471;28;20368;-71
2021/04/05 00:36:00;;;;;;;17.08;10.63;;;179.20;1612.80;;;;;;5094067;28;20372;-64
2021/04/05 00:38:26;;;;;;;17.35;11.10;;;179.20;1612.80;;;;;;5093735;28;20541;-64
2021/04/05 00:41:07;;;;;;;17.40;11.50;;;179.20;1612.80;;;;;;5094065;28;20414;-70
2021/04/05 00:43:38;;;;;;;17.70;12.43;;;179.20;1612.80;;;;;;5093811;28;20376;-72
2021/04/05 00:46:06;;;;;;;21.85;12.45;;;154.50;1638.40;;;;;;5093820;28;20488;-70
2021/04/05 00:48:33;;;;;;;24.90;13.27;;;154.40;1638.40;;;;;;5093685;28;20361;-64
2021/04/05 00:51:01;;;;;;;20.65;12.57;;;;;;;;;;5093703;28;20372;-72
2021/04/05 00:53:36;;;;;;;25.90;13.90;;;;;;;;;;5093940;28;20509;-70
2021/04/05 00:56:03;;;;;;;23.67;14.95;;;;;;;;;;5093698;28;20376;-71
2021/04/05 00:58:29;;;;;;;24.65;15.27;;;;;;;;;;5093551;28;20365;-64
2021/04/05 01:01:01;;;;;;;23.63;15.57;;;;;;;;;;5093475;28;20418;-65
2021/04/05 01:03:28;;;;;;;28.67;15.38;;;;;;;;;;5093418;28;20029;-69
2021/04/05 01:05:59;;;;;;;22.35;14.80;;;;;;;;;;5093983;28;20529;-72
2021/04/05 01:08:25;;;;;;;27.83;15.38;;;;;;;;;;5093506;28;20419;-70
2021/04/05 01:10:51;;;;;;;27.27;15.95;;;;;;;;;;5093786;28;20479;-64
2021/04/05 01:13:18;;;;;;;27.40;15.95;;;;;;;;;;5093462;28;20452;-64
2021/04/05 01:15:45;;;;;;;28.10;16.23;;;;;;;;;;5093433;28;20432;-64
2021/04/05 01:18:12;;;;;;;26.42;16.48;;;;;;;;;;5093375;28;20364;-65
2021/04/05 01:20:39;;;;;;;25.35;14.82;;;154.20;1638.40;;;;;;5093271;28;20341;-70
2021/04/05 01:23:05;;;;;;;25.38;15.43;;;153.90;1664.00;;;;;;5093424;28;20501;-64
2021/04/05 01:25:31;;;;;;;26.13;15.65;;;154.20;1689.60;;;;;;5093261;28;20422;-66
2021/04/05 01:27:58;;;;;;;24.90;15.80;;;153.70;1689.60;;;;;;5093279;28;20457;-63
2021/04/05 01:30:37;;;;;;;27.00;14.82;;;153.60;1689.60;;;;;;5093273;28;20362;-66
2021/04/05 01:33:07;;;;;;;21.40;13.68;;;128.90;1689.60;;;;;;5093244;28;20387;-67
2021/04/05 01:35:49;;;;;;;24.65;14.27;;;128.80;1689.60;;;;;;5093550;28;20597;-71
2021/04/05 01:38:17;;;;;;;23.50;12.90;;;128.80;1689.60;;;;;;5093065;28;20541;-70
2021/04/05 01:40:49;;;;;;;21.83;12.88;;;128.80;1689.60;;;;;;5093235;28;20364;-67
2021/04/05 01:43:15;;;;;;;18.98;13.18;;;128.90;1689.60;;;;;;5075171;28;20051;-63
2021/04/05 01:45:43;;;;;;;20.33;13.18;;;128.70;1689.60;;;;;;5093087;28;20472;-63
2021/04/05 01:48:13;;;;;;;19.45;12.10;;;128.60;1689.60;;;;;;5093107;28;20476;-67
2021/04/05 01:50:40;;;;;;;20.27;12.98;;;128.70;1689.60;;;;;;5096575;28;20411;-67
2021/04/05 01:53:06;;;;;;;22.65;13.85;;;128.70;1689.60;;;;;;5097169;28;20464;-64
2021/04/05 01:55:37;;;;;;;22.67;14.27;;;128.70;1689.60;;;;;;5097255;28;20453;-64
2021/04/05 01:58:05;;;;;;;24.98;13.90;;;128.60;1715.20;;;;;;5097250;28;20066;-63
2021/04/05 02:00:39;;;;;;;22.48;14.27;;;128.60;1715.20;;;;;;5097166;28;20395;-72
2021/04/05 02:03:07;;;;;;;24.23;14.13;;;128.50;1715.20;;;;;;5097192;28;20353;-63
2021/04/05 02:05:43;;;;;;;22.58;15.18;;;128.50;1715.20;;;;;;5096825;28;20381;-71
2021/04/05 02:08:10;;;;;;;26.70;14.30;;;128.50;1715.20;;;;;;5097042;28;20360;-71
2021/04/05 02:10:36;;;;;;;23.50;14.50;;;128.50;1715.20;;;;;;5097131;28;20370;-65
2021/04/05 02:13:04;;;;;;;24.08;15.07;;;128.50;1715.20;;;;;;5096780;28;20452;-63
2021/04/05 02:15:36;;;;;;;23.95;15.10;;;128.40;1740.80;;;;;;5096729;28;20487;-64
2021/04/05 02:18:02;;;;;;;22.05;14.32;;;128.40;1740.80;;;;;;5096773;28;20476;-63
2021/04/05 02:20:30;;;;;;;21.33;13.88;;;128.30;1740.80;;;;;;5096640;28;20368;-63
2021/04/05 02:22:59;;;;;;;23.92;14.10;;;128.20;1740.80;;;;;;5096694;28;20484;-65
2021/04/05 02:25:27;;;;;;;20.52;13.20;;;128.10;1766.40;;;;;;5096469;28;20613;-64
2021/04/05 02:27:54;;;;;;;21.08;13.32;;;128.20;1740.80;;;;;;5096440;28;20350;-63
2021/04/05 02:30:26;;;;;;;23.13;12.68;;;128.20;1766.40;;;;;;5096545;28;20456;-63
2021/04/05 02:32:59;;;;;;;22.63;12.20;;;128.20;1766.40;;;;;;5096449;28;20526;-63
2021/04/05 02:35:28;;;;;;;20.48;13.10;;;128.20;1740.80;;;;;;5096458;28;20476;-63
2021/04/05 02:37:55;;;;;;;20.38;12.07;;;128.20;1740.80;;;;;;5096119;28;20519;-65
2021/04/05 02:40:22;;;;;;;23.77;13.30;;;128.30;1740.80;;;;;;5096288;28;20468;-72
2021/04/05 02:42:50;;;;;;;22.25;12.82;;;128.30;1740.80;;;;;;5096062;28;20376;-66
2021/04/05 02:45:18;;;;;;;17.95;12.93;;;128.20;1740.80;;;;;;5095997;28;20491;-70
2021/04/05 02:47:46;;;;;;;22.20;12.85;;;128.20;1740.80;;;;;;5096085;28;20395;-64
2021/04/05 02:50:13;;;;;;;26.15;13.48;;;128.20;1740.80;;;;;;5096005;28;20397;-72
2021/04/05 02:52:40;;;;;;;21.55;12.98;;;128.10;1740.80;;;;;;5096047;28;20456;-66
2021/04/05 02:55:12;;;;;;;23.60;12.95;;;128.20;1766.40;;;;;;5095942;28;20487;-63
2021/04/05 02:57:40;;;;;;;18.58;12.27;;;128.10;1740.80;;;;;;5095953;28;20395;-70
2021/04/05 03:00:12;;;;;;;18.33;11.57;;;128.00;1766.40;;;;;;5095687;28;20392;-64
2021/04/05 03:02:40;;;;;;;20.95;12.13;;;128.00;1766.40;;;;;;5095936;28;20461;-65
2021/04/05 03:05:07;;;;;;;19.77;12.35;;;103.30;1740.80;;;;;;5095704;28;20490;-65
2021/04/05 03:07:37;;;;;;;27.42;13.07;;;103.30;1740.80;;;;;;5095860;28;20453;-63
2021/04/05 03:10:09;;;;;;;27.58;15.00;;;128.00;1766.40;;;;;;5095846;28;20031;-71
2021/04/05 03:12:36;;;;;;;25.27;13.68;;;128.00;1766.40;;;;;;5096091;28;20334;-63
2021/04/05 03:15:09;;;;;;;23.13;12.38;;;128.00;1766.40;;;;;;5095768;28;20386;-65
2021/04/05 03:17:36;;;;;;;22.55;11.45;;;128.00;1740.80;;;;;;5095761;28;20457;-71
2021/04/05 03:20:13;;;;;;;17.50;11.68;;;128.00;1740.80;;;;;;5095678;28;20360;-72
2021/04/05 03:22:41;;;;;;;21.15;12.18;;;103.30;1715.20;;;;;;5095702;28;20469;-63
2021/04/05 03:25:20;;;;;;;23.27;11.15;;;103.20;1715.20;;;;;;5095613;28;20456;-71
2021/04/05 03:27:47;;;;;;;21.55;10.65;;;103.20;1740.80;;;;;;5095623;28;20463;-72
2021/04/05 03:30:39;;;;;;;15.52;10.38;;;103.20;1740.80;;;;;;5095495;28;20468;-73
2021/04/05 03:33:28;;;;;;;17.77;10.85;;;103.20;1715.20;;;;;;5081158;28;20387;-69
2021/04/05 03:35:58;;;;;;;22.65;10.82;;;103.20;1715.20;;;;;;5095400;28;20391;-71
2021/04/05 03:38:25;;;;;;;15.15;9.45;;;103.20;1740.80;;;;;;5095162;28;20044;-71
2021/04/05 03:40:55;;;;;;;17.45;10.98;;;103.10;1740.80;;;;;;5095265;28;20395;-71
2021/04/05 03:43:36;;;;;;;21.87;11.97;;;103.20;1715.20;;;;;;5095216;28;20411;-71
2021/04/05 03:46:12;;;;;;;23.05;12.38;;;103.10;1740.80;;;;;;5095045;28;20401;-71
2021/04/05 03:48:55;;;;;;;17.08;10.80;;;103.10;1740.80;;;;;;5095385;28;20365;-63
2021/04/05 03:51:34;;;;;;;18.10;11.40;;;103.00;1766.40;;;;;;5095182;28;20465;-70
2021/04/05 03:54:08;;;;;;;22.08;11.70;;;103.00;1766.40;;;;;;5094949;28;20026;-63
2021/04/05 03:56:41;;;;;;;17.30;10.45;;;103.10;1766.40;;;;;;5094860;28;20411;-71
2021/04/05 03:59:49;;;;;;;16.03;10.30;;;103.00;1766.40;;;;;;5095200;28;20413;-63
2021/04/05 04:02:20;;;;;;;22.30;12.00;;;103.00;1766.40;;;;;;5012823;28;20540;-63
2021/04/05 04:05:01;;;;;;;25.80;12.13;;;103.00;1792.00;;;;;;5012737;28;20549;-64
2021/04/05 04:10:19;;;;;;;18.50;11.97;;;102.80;1817.60;;;;;;5013347;28;20029;-63
2021/04/05 04:12:50;;;;;;;19.88;11.85;;;102.70;1843.20;;;;;;5012168;28;20470;-62
2021/04/05 04:15:17;;;;;;;23.67;13.93;;;102.70;1843.20;;;;;;5012675;28;20532;-63
2021/04/05 04:17:44;;;;;;;29.20;17.65;;;102.70;1868.80;;;;;;5012649;28;20499;-62
2021/04/05 04:20:13;;;;;;;33.10;16.27;;;102.60;1868.80;;;;;;5012673;28;20548;-73
2021/04/05 04:22:41;;;;;;;33.53;18.60;;;102.60;1894.40;;;;;;5012463;28;20410;-71
2021/04/05 04:25:08;;;;;;;31.67;17.60;;;102.60;1894.40;;;;;;5012388;28;20390;-62
2021/04/05 04:27:35;;;;;;;33.17;17.67;;;102.60;1894.40;;;;;;5012234;28;20483;-72
2021/04/05 04:30:04;;;;;;;32.83;16.70;;;102.70;1894.40;;;;;;5012375;28;20517;-71
2021/04/05 04:32:30;;;;;;;32.30;17.13;;;102.90;1894.40;;;;;;5037233;28;20369;-71
2021/04/05 04:34:57;;;;;;;29.42;16.08;;;102.60;1920.00;;;;;;5094157;28;20342;-62
2021/04/05 04:37:23;;;;;;;29.30;16.17;;;102.60;1920.00;;;;;;5094057;28;20429;-63
2021/04/05 04:39:50;;;;;;;34.53;16.35;;;102.60;1920.00;;;;;;5094161;28;20372;-63
2021/04/05 04:42:16;;;;;;;33.47;17.83;;;102.60;1920.00;;;;;;5093989;28;20447;-70
2021/04/05 04:44:43;;;;;;;29.58;16.75;;;102.70;1920.00;;;;;;5094236;28;20345;-62
2021/04/05 04:47:11;;;;;;;32.20;19.58;;;102.70;1920.00;;;;;;5093947;28;20445;-62
2021/04/05 04:49:37;;;;;;;44.85;23.60;;;102.80;1920.00;;;;;;5093914;28;20388;-62
2021/04/05 04:52:03;;;;;;;48.27;25.40;;;102.80;1920.00;;;;;;5093861;28;20070;-71
2021/04/05 04:54:29;;;;;;;51.53;25.58;;;102.80;1920.00;;;;;;5093885;28;20484;-71
2021/04/05 04:56:56;;;;;;;50.92;26.15;;;102.80;1920.00;;;;;;5093801;28;20341;-65
2021/04/05 04:59:24;;;;;;;56.15;26.00;;;102.80;1920.00;;;;;;5093796;28;20821;-72
2021/04/05 05:01:50;;;;;;;47.33;25.90;;;102.80;1945.60;;;;;;5093767;28;20453;-72
2021/04/05 05:04:26;;;;;;;58.45;28.38;;;102.70;1945.60;;;;;;5093599;28;20448;-71
2021/04/05 05:06:54;;;;;;;78.45;35.67;;;102.70;1945.60;;;;;;5093736;28;20388;-71
2021/04/05 05:09:21;;;;;;;93.85;41.42;;;102.70;1971.20;;;;;;5075477;28;20455;-71
2021/04/05 05:11:47;;;;;;;71.43;32.50;;;102.70;1971.20;;;;;;5093472;28;20372;-71
2021/04/05 05:14:16;;;;;;;59.65;29.55;;;102.80;1971.20;;;;;;5093555;28;20413;-72
2021/04/05 05:16:44;;;;;;;61.03;29.15;;;102.80;1945.60;;;;;;5093775;28;20403;-72
2021/04/05 05:19:11;;;;;;;66.95;28.35;;;102.90;1945.60;;;;;;5093494;28;20368;-72
2021/04/05 05:21:44;;;;;;;58.28;27.70;;;103.00;1920.00;;;;;;5094104;28;20412;-63
2021/04/05 05:24:15;;;;;;;50.85;27.35;;;103.10;1920.00;;;;;;5092483;28;20074;-72
2021/04/05 05:26:43;;;;;;;62.67;29.58;;;103.10;1894.40;;;;;;5093474;28;20400;-62
2021/04/05 05:29:13;;;;;;;48.22;25.00;;;103.20;1894.40;;;;;;5093422;28;20439;-72
2021/04/05 05:31:43;;;;;;;56.60;30.08;;;103.30;1894.40;;;;;;5094066;28;20349;-63
2021/04/05 05:34:11;;;;;;;58.38;32.97;;;128.00;1894.40;;;;;;5093398;28;20395;-72
2021/04/05 05:36:38;;;;;;;49.72;27.92;;;128.10;1868.80;;;;;;5093712;28;20409;-62
2021/04/05 05:39:05;;;;;;;47.42;23.95;;;128.10;1868.80;;;;;;5093221;28;20392;-72
2021/04/05 05:41:44;;;;;;;41.63;22.13;;;128.20;1868.80;;;;;;5093410;28;20424;-63
2021/04/05 05:44:23;;;;;;;36.65;20.58;;;128.30;1868.80;;;;;;5093351;28;20426;-63
2021/04/05 05:47:02;;;;;;;42.03;20.58;;;128.30;1868.80;;;;;;5093637;28;20395;-63
2021/04/05 05:49:40;;;;;;;33.30;19.00;;;128.40;1868.80;;;;;;5093357;28;20367;-63
2021/04/05 05:52:15;;;;;;;29.88;18.08;;;128.40;1843.20;;;;;;5093851;28;20329;-62
2021/04/05 05:55:10;;;;;;;39.85;18.10;;;128.40;1843.20;;;;;;5093348;28;20024;-62
2021/04/05 05:57:48;;;;;;;39.25;18.83;;;128.40;1843.20;;;;;;5058816;28;20552;-71
2021/04/05 06:00:23;;;;;;;32.67;17.85;;;128.40;1843.20;;;;;;5093266;28;20476;-63
2021/04/05 06:03:17;;;;;;;38.65;19.08;;;128.40;1868.80;;;;;;5093122;28;20357;-73
2021/04/05 06:06:19;;;;;;;30.40;18.65;;;128.50;1868.80;;;;;;5093311;28;20478;-71
2021/04/05 06:09:09;;;;;;;34.53;20.15;;;128.50;1868.80;;;;;;5092964;28;20485;-71
2021/04/05 06:12:05;;;;;;;33.97;20.60;;;128.60;1868.80;;;;;;5093001;28;20417;-63
2021/04/05 06:14:49;;;;;;;34.72;20.52;;;128.60;1868.80;;;;;;5092956;28;20024;-65
2021/04/05 06:17:31;;;;;;;39.63;25.15;;;128.70;1868.80;;;;;;5093277;28;20376;-62
2021/04/05 06:20:20;;;;;;;61.80;26.67;;;128.90;1843.20;;;;;;5093261;28;20369;-63
2021/04/05 06:23:11;;;;;;;28.33;17.52;;;153.60;1843.20;;;;;;5093164;28;20414;-65
2021/04/05 06:25:57;;;;;;;32.53;19.90;;;153.80;1817.60;;;;;;5093184;28;20515;-62
2021/04/05 06:29:02;;;;;;;27.67;17.58;;;154.00;1843.20;;;;;;5093108;28;20369;-63
2021/04/05 06:31:53;;;;;;;32.80;19.58;;;154.10;1817.60;;;;;;5092827;28;20398;-72
2021/04/05 06:34:22;;;;;;;29.00;20.65;;;179.50;1766.40;;;;;;5093230;28;20334;-66
2021/04/05 06:37:00;;;;;;;43.67;24.90;;;307.40;1331.20;;;;;;5096420;28;20461;-67
2021/04/05 06:39:28;;;;;;;38.10;24.55;;;410.40;1024.00;;;;;;5096657;28;20365;-73
2021/04/05 06:42:28;;;;;;;32.38;22.40;;;487.10;844.80;;;;;;5096271;28;20346;-65
2021/04/05 06:45:16;;;;;;;27.50;20.77;;;564.10;742.40;;;;;;5096687;28;20350;-73
2021/04/05 06:47:44;;;;;;;22.98;17.50;;;615.20;640.00;;;;;;5096656;28;20393;-64
2021/04/05 06:50:38;;;;;;;28.73;19.63;;;665.80;588.80;;;;;;5096578;28;20403;-72
2021/04/05 06:53:09;;;;;;;28.87;17.13;;;716.80;537.60;;;;;;5096299;28;20341;-72
2021/04/05 06:55:42;;;;;;;80.70;33.50;;;742.50;537.60;;;;;;5096047;28;20597;-65
2021/04/05 06:58:24;;;;;;;41.45;26.95;;;768.50;460.80;;;;;;5077868;28;20470;-66
2021/04/05 07:01:11;;;;;;;108.93;54.17;;;793.70;460.80;;;;;;5095918;28;20537;-63
2021/04/05 07:04:05;;;;;;;38.28;22.42;;;793.90;460.80;;;;;;5096209;28;20393;-61
2021/04/05 07:06:51;;;;;;;37.17;25.50;;;768.00;435.20;;;;;;5077956;28;20494;-73
2021/04/05 07:09:34;;;;;;;24.30;16.73;;;665.70;537.60;;;;;;5095742;28;20364;-72
2021/04/05 07:12:18;;;;;;;23.83;15.88;;;588.80;665.60;;;;;;5095825;28;20052;-64
2021/04/05 07:15:27;;;;;;;21.02;12.23;;;538.00;691.20;;;;;;5095994;28;20348;-67
2021/04/05 07:18:18;;;;;;;21.75;13.18;;;487.20;742.40;;;;;;5095905;28;20360;-63
2021/04/05 07:21:08;;;;;;;17.98;11.93;;;461.30;793.60;;;;;;5095621;28;20491;-69
2021/04/05 07:23:46;;;;;;;16.17;10.77;;;436.00;870.40;;;;;;5095511;28;20491;-68
2021/04/05 07:26:42;;;;;;;55.05;33.72;;;410.50;921.60;;;;;;5095522;28;20368;-68
2021/04/05 07:29:10;;;;;;;49.60;27.02;;;410.00;921.60;;;;;;5095736;28;20348;-67
2021/04/05 07:32:08;;;;;;;25.33;15.70;;;409.60;972.80;;;;;;5095397;28;20425;-67
2021/04/05 07:34:51;;;;;;;12.73;9.00;;;384.70;921.60;;;;;;5057232;28;20498;-68
2021/04/05 07:37:54;;;;;;;12.82;8.65;;;359.30;998.40;;;;;;5095591;28;20373;-68
2021/04/05 07:40:43;;;;;;;12.35;8.65;;;359.10;998.40;;;;;;5095261;28;20391;-68
2021/04/05 07:43:50;;;;;;;11.45;7.82;;;358.90;998.40;;;;;;5095175;28;20402;-68
2021/04/05 07:46:33;;;;;;;19.80;9.85;;;358.60;1024.00;;;;;;5094913;28;20372;-70
2021/04/05 07:49:10;;;;;;;18.73;11.50;;;358.60;1024.00;;;;;;5095015;28;20338;-75
2021/04/05 07:51:47;;;;;;;10.68;8.10;;;358.60;1024.00;;;;;;5076843;28;20364;-66
2021/04/05 07:54:15;;;;;;;15.40;9.25;;;358.50;1049.60;;;;;;5094922;28;20421;-71
2021/04/05 07:56:54;;;;;;;13.93;7.15;;;358.50;1024.00;;;;;;5094792;28;20483;-67
2021/04/05 07:59:25;;;;;;;12.02;7.13;;;358.40;1075.20;;;;;;5094844;28;20411;-67
2021/04/05 08:02:10;;;;;;;11.43;7.93;;;333.50;1126.40;;;;;;5095245;28;20329;-69
2021/04/05 08:04:55;;;;;;;11.48;8.98;;;333.50;1126.40;;;;;;5094491;28;20456;-68
2021/04/05 08:07:30;;;;;;;10.80;6.32;;;333.50;1100.80;;;;;;5095242;28;20020;-68
2021/04/05 08:10:51;;;;;;;9.77;6.85;;;333.10;1126.40;;;;;;5094557;28;20373;-67
2021/04/05 08:13:39;;;;;;;13.98;7.57;;;333.10;1126.40;;;;;;5053010;28;20371;-68
2021/04/05 08:16:29;;;;;;;9.38;7.03;;;333.20;1152.00;;;;;;5094651;28;20418;-69
2021/04/05 08:19:19;;;;;;;8.90;7.13;;;333.00;1152.00;;;;;;5094553;28;20346;-68
2021/04/05 08:22:16;;;;;;;14.48;7.97;;;332.90;1177.60;;;;;;5094648;28;20503;-67
2021/04/05 08:25:20;;;;;;;11.10;7.35;;;333.00;1203.20;;;;;;5089786;28;20372;-68
2021/04/05 08:28:24;;;;;;;15.15;9.82;;;333.00;1228.80;;;;;;5060091;28;20448;-69
2021/04/05 08:31:02;;;;;;;;;;;333.10;1203.20;;;;;;5076681;28;20437;-68
2021/04/05 08:33:47;;;;;;;8.25;6.15;;;333.20;1203.20;;;;;;5094618;28;20255;-68
2021/04/05 08:36:44;;;;;;;13.85;8.73;;;333.10;1126.40;;;;;;5094304;28;20387;-68
2021/04/05 08:39:19;;;;;;;12.23;8.30;;;332.90;1177.60;;;;;;5094782;28;20396;-68
2021/04/05 08:41:58;;;;;;;15.77;8.45;;;332.80;1228.80;;;;;;5094206;28;20537;-67
2021/04/05 08:44:39;;;;;;;14.25;9.70;;;333.00;1177.60;;;;;;5094752;28;20463;-74
2021/04/05 08:47:12;;;;;;;11.32;7.93;;;332.90;1177.60;;;;;;5094175;28;20536;-68
2021/04/05 08:49:44;;;;;;;18.67;13.30;;;332.90;1152.00;;;;;;5094095;28;20452;-69
2021/04/05 08:52:13;;;;;;;23.17;14.93;;;332.90;1152.00;;;;;;5093936;28;20496;-68
2021/04/05 08:54:40;;;;;;;22.17;14.45;;;332.80;1203.20;;;;;;5093841;28;20460;-69
2021/04/05 08:57:13;;;;;;;15.38;10.05;;;332.90;1203.20;;;;;;5093864;28;20367;-70
2021/04/05 08:59:42;;;;;;;14.43;10.35;;;332.80;1177.60;;;;;;5093651;28;20356;-68
2021/04/05 09:02:26;;;;;;;11.77;8.73;;;332.80;1228.80;;;;;;5093834;28;20376;-68
2021/04/05 09:04:55;;;;;;;38.70;22.52;;;332.80;1177.60;;;;;;5093735;28;20400;-69
2021/04/05 09:07:40;;;;;;;45.10;25.52;;;308.10;1152.00;;;;;;5075719;28;20395;-69
2021/04/05 09:10:09;;;;;;;16.55;11.07;;;332.80;1203.20;;;;;;5075608;28;20368;-68
2021/04/05 09:12:38;;;;;;;12.07;7.38;;;332.80;1177.60;;;;;;5093756;28;20404;-70
2021/04/05 09:15:19;;;;;;;10.18;8.00;;;332.80;1075.20;;;;;;5093757;28;20380;-68
2021/04/05 09:18:06;;;;;;;12.50;8.90;;;308.10;1100.80;;;;;;5094264;28;20438;-69
2021/04/05 09:21:00;;;;;;;13.77;9.63;;;307.90;1126.40;;;;;;5093850;28;20364;-69
2021/04/05 09:23:42;;;;;;;9.75;7.07;;;308.00;1152.00;;;;;;5093569;28;20460;-69
2021/04/05 09:26:47;;;;;;;12.75;7.07;;;308.10;1126.40;;;;;;5093507;28;20354;-70
2021/04/05 09:29:26;;;;;;;9.23;7.20;;;308.00;1100.80;;;;;;5093862;28;20372;-69
2021/04/05 09:32:19;;;;;;;11.20;7.95;;;332.80;1203.20;;;;;;5093987;28;20441;-69
2021/04/05 09:35:25;;;;;;;10.23;7.72;;;332.80;1126.40;;;;;;5093492;28;20349;-67
2021/04/05 09:38:28;;;;;;;10.82;7.20;;;332.80;1152.00;;;;;;5093344;28;20473;-69
2021/04/05 09:41:31;;;;;;;8.38;6.22;;;308.10;1126.40;;;;;;5093291;28;20412;-70
2021/04/05 09:44:41;;;;;;;14.52;6.78;;;332.90;1126.40;;;;;;5093165;28;20491;-70
2021/04/05 09:47:22;;;;;;;9.80;7.25;;;333.00;1100.80;;;;;;5011399;28;20450;-65
2021/04/05 09:50:27;;;;;;;12.75;7.93;;;333.10;1152.00;;;;;;5011468;28;20431;-70
2021/04/05 09:53:12;;;;;;;12.18;8.50;;;333.20;1152.00;;;;;;5011263;28;20401;-74
2021/04/05 09:55:43;;;;;;;13.45;7.60;;;333.30;1177.60;;;;;;5011581;28;20343;-70
2021/04/05 09:58:39;;;;;;;10.43;7.60;;;333.30;1152.00;;;;;;5011605;28;20398;-69
2021/04/05 10:01:19;;;;;;;10.95;7.32;;;333.30;1152.00;;;;;;5011416;28;20477;-69
2021/04/05 10:03:46;;;;;;;21.10;7.93;;;333.40;1152.00;;;;;;5011598;28;20446;-70
2021/04/05 10:06:18;;;;;;;14.18;7.47;;;333.40;1126.40;;;;;;5010978;28;20394;-66
2021/04/05 10:08:47;;;;;;;10.80;7.18;;;333.30;1126.40;;;;;;5011083;28;20426;-69
2021/04/05 10:11:14;;;;;;;16.45;8.10;;;333.30;1100.80;;;;;;5013769;28;20573;-66
2021/04/05 10:13:57;;;;;;;14.02;7.50;;;333.40;1152.00;;;;;;5014837;28;20492;-70
2021/04/05 10:16:24;;;;;;;10.82;7.65;;;333.50;1075.20;;;;;;5014753;28;20437;-69
2021/04/05 10:18:56;;;;;;;25.08;12.88;;;333.40;1049.60;;;;;;5014709;28;20545;-69
2021/04/05 10:21:25;;;;;;;22.05;12.18;;;333.40;1126.40;;;;;;5015291;28;20036;-67
2021/04/05 10:23:52;;;;;;;39.08;19.88;;;333.50;1075.20;;;;;;5053696;28;20425;-68
2021/04/05 10:26:20;;;;;;;37.65;18.95;;;333.50;1100.80;;;;;;5097161;28;20043;-68
2021/04/05 10:28:48;;;;;;;11.38;8.77;;;333.50;1075.20;;;;;;5096634;28;20479;-69
2021/04/05 10:31:22;;;;;;;10.93;8.85;;;333.50;1075.20;;;;;;5097108;28;20476;-68
2021/04/05 10:33:50;;;;;;;11.27;8.40;;;333.30;1049.60;;;;;;5097060;28;20103;-70
2021/04/05 10:36:22;;;;;;;11.02;9.25;;;333.40;1049.60;;;;;;5096694;28;20433;-66
2021/04/05 10:38:50;;;;;;;23.73;13.43;;;333.50;1100.80;;;;;;5096116;28;20381;-67
2021/04/05 10:41:23;;;;;;;15.63;9.90;;;333.60;1126.40;;;;;;5096446;28;20483;-69
2021/04/05 10:44:04;;;;;;;13.60;8.10;;;333.70;1126.40;;;;;;5096300;28;20016;-69
2021/04/05 10:46:34;;;;;;;11.07;8.30;;;333.60;1024.00;;;;;;5096584;28;20496;-68
2021/04/05 10:49:10;;;;;;;13.27;10.52;;;333.50;1100.80;;;;;;5096334;28;20427;-69
2021/04/05 10:52:14;;;;;;;16.60;9.45;;;333.60;1075.20;;;;;;5096665;28;20472;-69
2021/04/05 10:54:42;;;;;;;19.98;12.38;;;333.70;1100.80;;;;;;5092416;28;20380;-69
2021/04/05 10:57:13;;;;;;;16.50;9.43;;;358.40;1100.80;;;;;;5096111;28;20380;-69
2021/04/05 10:59:44;;;;;;;17.10;10.38;;;358.40;998.40;;;;;;5096079;28;20405;-67
2021/04/05 11:02:40;;;;;;;13.80;10.05;;;358.40;1075.20;;;;;;5095972;28;20341;-69
2021/04/05 11:05:12;;;;;;;18.20;10.73;;;358.40;1049.60;;;;;;5096056;28;20375;-70
2021/04/05 11:07:41;;;;;;;17.27;11.85;;;358.40;1100.80;;;;;;5096060;28;20363;-76
2021/04/05 11:10:16;;;;;;;13.13;9.82;;;358.40;1100.80;;;;;;5096316;28;20419;-76
2021/04/05 11:12:45;;;;;;;15.20;12.93;;;358.40;1100.80;;;;;;5095801;28;20360;-70
2021/04/05 11:15:16;;;;;;;11.50;8.82;;;358.40;1126.40;;;;;;5077376;28;20372;-70
2021/04/05 11:17:45;;;;;;;10.40;7.07;;;358.40;1024.00;;;;;;5095729;28;20346;-68
2021/04/05 11:20:14;;;;;;;12.88;9.18;;;358.40;1024.00;;;;;;5095539;28;20488;-68
2021/04/05 11:22:41;;;;;;;12.10;8.80;;;358.50;1049.60;;;;;;5077748;28;20409;-69
2021/04/05 11:25:39;;;;;;;13.23;9.52;;;358.50;1024.00;;;;;;5095480;28;20502;-68
2021/04/05 11:28:32;;;;;;;14.98;9.60;;;358.60;1075.20;;;;;;5070277;28;20372;-71
2021/04/05 11:31:01;;;;;;;15.95;10.00;;;358.70;1075.20;;;;;;5086657;28;20410;-67
2021/04/05 11:33:34;;;;;;;15.38;9.85;;;358.80;1049.60;;;;;;5095253;28;20153;-69
2021/04/05 11:36:05;;;;;;;;;;;358.90;1100.80;;;;;;5095920;28;20420;-71
2021/04/05 11:38:37;;;;;;;10.98;8.82;;;358.90;1075.20;;;;;;5095241;28;20272;-68
2021/04/05 11:41:06;;;;;;;10.60;8.20;;;358.80;1049.60;;;;;;5095301;28;20482;-69
2021/04/05 11:43:38;;;;;;;15.20;10.10;;;358.90;1024.00;;;;;;5095199;28;20484;-73
2021/04/05 11:46:15;;;;;;;13.02;10.20;;;358.90;1049.60;;;;;;5095419;28;20356;-69
2021/04/05 11:49:01;;;;;;;11.20;9.52;;;358.90;1024.00;;;;;;5095041;28;20507;-66
2021/04/05 11:51:32;;;;;;;13.18;9.95;;;358.90;1049.60;;;;;;5095321;28;20337;-72
2021/04/05 11:54:02;;;;;;;19.13;11.65;;;358.90;1024.00;;;;;;5095320;28;20352;-73
2021/04/05 11:56:35;;;;;;;25.23;12.45;;;359.00;1075.20;;;;;;5094922;28;20406;-76
2021/04/05 11:59:01;;;;;;;9.85;8.60;;;359.10;1049.60;;;;;;5095345;28;20405;-65
2021/04/05 12:01:36;;;;;;;11.82;8.68;;;359.10;1024.00;;;;;;5094931;28;20423;-73
2021/04/05 12:04:28;;;;;;;14.07;8.80;;;359.10;1024.00;;;;;;5094897;28;20391;-73
2021/04/05 12:07:09;;;;;;;10.90;7.32;;;359.10;1024.00;;;;;;5080322;28;20507;-73
2021/04/05 12:09:45;;;;;;;14.35;8.95;;;359.10;947.20;;;;;;5094832;28;20391;-74
2021/04/05 12:12:31;;;;;;;11.95;7.90;;;359.00;947.20;;;;;;5094857;28;20111;-74
2021/04/05 12:14:58;;;;;;;11.88;8.07;;;359.10;947.20;;;;;;5094910;28;20445;-84
2021/04/05 12:17:25;;;;;;;17.20;11.02;;;359.10;972.80;;;;;;5094568;28;20430;-73
2021/04/05 12:19:54;;;;;;;14.90;8.35;;;359.10;972.80;;;;;;5094781;28;20472;-72
2021/04/05 12:22:31;;;;;;;11.70;7.47;;;359.10;1024.00;;;;;;5076364;28;20387;-71
2021/04/05 12:25:00;;;;;;;9.63;7.70;;;359.20;947.20;;;;;;5094392;28;20491;-72
2021/04/05 12:27:32;;;;;;;8.90;6.18;;;359.20;947.20;;;;;;5094634;28;20356;-67
2021/04/05 12:30:05;;;;;;;15.45;7.03;;;359.20;947.20;;;;;;5094298;28;20397;-66
2021/04/05 12:32:32;;;;;;;10.20;6.90;;;359.10;921.60;;;;;;5093962;28;20436;-67
2021/04/05 12:35:03;;;;;;;7.82;6.40;;;359.30;947.20;;;;;;5094085;28;20379;-73
2021/04/05 12:37:31;;;;;;;11.55;7.95;;;359.30;921.60;;;;;;5094117;28;20439;-73
2021/04/05 12:40:01;;;;;;;9.48;5.88;;;359.30;972.80;;;;;;5094097;28;20363;-72
2021/04/05 12:42:38;;;;;;;9.10;6.68;;;384.00;947.20;;;;;;5094071;28;20463;-72
2021/04/05 12:45:11;;;;;;;7.28;5.65;;;384.00;947.20;;;;;;5093970;28;20371;-71
2021/04/05 12:47:41;;;;;;;8.23;6.60;;;384.00;947.20;;;;;;5094186;28;20460;-73
2021/04/05 12:50:13;;;;;;;9.60;7.13;;;384.10;947.20;;;;;;5093943;28;20417;-68
2021/04/05 12:52:41;;;;;;;8.40;6.25;;;384.20;921.60;;;;;;5093935;28;20465;-73